Wawasan Ruby — 3EVU7 — position and weather

sailwx.info

Track history (hours):
 
Tides and Currents Weather Stations Pressure Air Temp Water Temp Dewpoint Dewpoint Depression Visibility Wind Speed Wind Dir Waves Ship Positions

Wawasan Ruby

Last reported at 2017-Feb-20 11:06 UTC. Time now 2017-Feb-22 03:54 UTC.
Position N 01°14' E 104°02'.

Length 146 m; draft 9.2 m.

Type: Tanker. MMSI: 355619000.

Date/timePositionNaut miles runAvg speedWind from/ knotsBaromVisibWave heightAir tempDewpointWater temp
2017-Feb-20 11:06N 01°14' E 104°02'5 9.4
2017-Feb-20 10:33N 01°13' E 103°57'8 7.4
2017-Feb-20 09:32N 01°10' E 103°50'9 9.5
2017-Feb-20 08:33N 01°04' E 103°42'10 8.0
2017-Feb-20 07:17N 01°09' E 103°33'7 9.8
2017-Feb-20 06:33N 01°12' E 103°39'2 0.7
2017-Feb-20 04:08N 01°14' E 103°39'0 0.0
2017-Feb-19 22:32N 01°14' E 103°39'0 0.0
2017-Feb-19 21:26N 01°14' E 103°39'0 0.4
2017-Feb-19 20:31N 01°14' E 103°40'6 2.6
2017-Feb-19 18:09N 01°18' E 103°44'0 0.0
2017-Feb-19 16:27N 01°18' E 103°44'0 0.0
2017-Feb-19 08:33N 01°18' E 103°44'0 0.0
2017-Feb-19 07:33N 01°18' E 103°44'0 0.0
2017-Feb-19 04:30N 01°18' E 103°44'0 0.0
2017-Feb-19 00:27N 01°18' E 103°44'0 0.0
2017-Feb-18 23:18N 01°18' E 103°44'0 0.0
2017-Feb-18 20:24N 01°18' E 103°44'0 0.0
2017-Feb-18 19:33N 01°18' E 103°44'0 0.0
2017-Feb-18 18:33N 01°18' E 103°44'0 0.0
2017-Feb-18 17:30N 01°18' E 103°44'0 0.0
2017-Feb-18 16:33N 01°18' E 103°44'0 0.0
2017-Feb-18 15:27N 01°18' E 103°44'0 0.0
2017-Feb-18 14:27N 01°18' E 103°44'0 0.0
2017-Feb-18 13:33N 01°18' E 103°44'0 0.0
2017-Feb-18 12:27N 01°18' E 103°44'0 0.2
2017-Feb-18 11:33N 01°18' E 103°44'6 5.8
2017-Feb-18 10:33N 01°13' E 103°41'5 5.0
2017-Feb-18 09:33N 01°18' E 103°41'0 0.0
2017-Feb-18 08:27N 01°18' E 103°41'0 0.0
2017-Feb-18 07:33N 01°18' E 103°41'0 0.0
2017-Feb-18 06:33N 01°18' E 103°41'0 0.0
2017-Feb-18 05:33N 01°18' E 103°41'0 0.0
2017-Feb-18 04:27N 01°18' E 103°41'0 0.0
2017-Feb-18 03:33N 01°18' E 103°41'0 0.0
2017-Feb-18 02:33N 01°18' E 103°41'0 0.0
2017-Feb-18 01:33N 01°18' E 103°41'0 0.0
2017-Feb-18 00:33N 01°18' E 103°41'0 0.0
2017-Feb-17 23:33N 01°18' E 103°41'0 0.0
2017-Feb-17 22:33N 01°18' E 103°41'0 0.0
2017-Feb-17 21:30N 01°18' E 103°41'0 0.0
2017-Feb-17 20:27N 01°18' E 103°41'0 0.0
2017-Feb-17 19:24N 01°18' E 103°41'0 0.0
2017-Feb-17 18:33N 01°18' E 103°41'0 0.0
2017-Feb-17 17:33N 01°18' E 103°41'0 0.0
2017-Feb-17 16:33N 01°18' E 103°41'1 1.1
2017-Feb-17 15:33N 01°17' E 103°42'0 0.0
2017-Feb-17 14:32N 01°17' E 103°42'0 0.0
2017-Feb-17 13:29N 01°17' E 103°42'0 0.0
2017-Feb-17 12:32N 01°17' E 103°42'0 0.0
2017-Feb-17 11:26N 01°17' E 103°42'0 0.0
2017-Feb-17 10:32N 01°17' E 103°42'0 0.0
2017-Feb-17 09:32N 01°17' E 103°42'0 0.0
2017-Feb-17 08:32N 01°17' E 103°42'0 0.0
2017-Feb-17 07:32N 01°17' E 103°42'0 0.0
2017-Feb-17 06:32N 01°17' E 103°42'0 0.0
2017-Feb-17 05:32N 01°17' E 103°42'0 0.0
2017-Feb-17 04:32N 01°17' E 103°42'0 0.0
2017-Feb-17 03:29N 01°17' E 103°42'0 0.0
2017-Feb-17 02:29N 01°17' E 103°42'0 0.0
2017-Feb-17 01:32N 01°17' E 103°42'0 0.0
2017-Feb-17 00:32N 01°17' E 103°42'0 0.0
2017-Feb-16 23:32N 01°17' E 103°42'0 0.0
2017-Feb-16 22:32N 01°17' E 103°42'0 0.0
2017-Feb-16 21:32N 01°17' E 103°42'0 0.0
2017-Feb-16 20:32N 01°17' E 103°42'0 0.1
2017-Feb-16 19:32N 01°17' E 103°42'0 0.3
2017-Feb-16 18:33N 01°17' E 103°42'4 4.2
2017-Feb-16 17:33N 01°14' E 103°39'0 0.1
2017-Feb-16 16:33N 01°14' E 103°39'0 0.0
2017-Feb-16 15:33N 01°14' E 103°39'0 0.0
2017-Feb-16 14:33N 01°14' E 103°39'0 0.0
2017-Feb-16 13:33N 01°14' E 103°39'0 0.0
2017-Feb-16 12:33N 01°14' E 103°39'0 0.0
2017-Feb-16 11:33N 01°14' E 103°39'0 0.0
2017-Feb-16 10:33N 01°14' E 103°39'0 0.1
2017-Feb-16 09:33N 01°14' E 103°39'5 5.0
2017-Feb-16 08:33N 01°10' E 103°42'10 9.9
2017-Feb-16 07:33N 01°12' E 103°52'1110.6
2017-Feb-16 06:32N 01°16' E 104°02'  
Track history (hours):
 
Tides and Currents Weather Stations Pressure Air Temp Water Temp Dewpoint Dewpoint Depression Visibility Wind Speed Wind Dir Waves Ship Positions

Wawasan Ruby

Last reported at 2017-Feb-20 11:06 UTC. Time now 2017-Feb-22 03:54 UTC.
Position N 01°14' E 104°02'.

Length 146 m; draft 9.2 m.

Type: Tanker. MMSI: 355619000.

Date/timePositionNaut miles runAvg speedWind from/ knotsBaromVisibWave heightAir tempDewpointWater temp
2017-Feb-20 11:06N 01°14' E 104°02'5 9.4
2017-Feb-20 10:33N 01°13' E 103°57'8 7.4
2017-Feb-20 09:32N 01°10' E 103°50'9 9.5
2017-Feb-20 08:33N 01°04' E 103°42'10 8.0
2017-Feb-20 07:17N 01°09' E 103°33'7 9.8
2017-Feb-20 06:33N 01°12' E 103°39'2 0.7
2017-Feb-20 04:08N 01°14' E 103°39'0 0.0
2017-Feb-19 22:32N 01°14' E 103°39'0 0.0
2017-Feb-19 21:26N 01°14' E 103°39'0 0.4
2017-Feb-19 20:31N 01°14' E 103°40'6 2.6
2017-Feb-19 18:09N 01°18' E 103°44'0 0.0
2017-Feb-19 16:27N 01°18' E 103°44'0 0.0
2017-Feb-19 08:33N 01°18' E 103°44'0 0.0
2017-Feb-19 07:33N 01°18' E 103°44'0 0.0
2017-Feb-19 04:30N 01°18' E 103°44'0 0.0
2017-Feb-19 00:27N 01°18' E 103°44'0 0.0
2017-Feb-18 23:18N 01°18' E 103°44'0 0.0
2017-Feb-18 20:24N 01°18' E 103°44'0 0.0
2017-Feb-18 19:33N 01°18' E 103°44'0 0.0
2017-Feb-18 18:33N 01°18' E 103°44'0 0.0
2017-Feb-18 17:30N 01°18' E 103°44'0 0.0
2017-Feb-18 16:33N 01°18' E 103°44'0 0.0
2017-Feb-18 15:27N 01°18' E 103°44'0 0.0
2017-Feb-18 14:27N 01°18' E 103°44'0 0.0
2017-Feb-18 13:33N 01°18' E 103°44'0 0.0
2017-Feb-18 12:27N 01°18' E 103°44'0 0.2
2017-Feb-18 11:33N 01°18' E 103°44'6 5.8
2017-Feb-18 10:33N 01°13' E 103°41'5 5.0
2017-Feb-18 09:33N 01°18' E 103°41'0 0.0
2017-Feb-18 08:27N 01°18' E 103°41'0 0.0
2017-Feb-18 07:33N 01°18' E 103°41'0 0.0
2017-Feb-18 06:33N 01°18' E 103°41'0 0.0
2017-Feb-18 05:33N 01°18' E 103°41'0 0.0
2017-Feb-18 04:27N 01°18' E 103°41'0 0.0
2017-Feb-18 03:33N 01°18' E 103°41'0 0.0
2017-Feb-18 02:33N 01°18' E 103°41'0 0.0
2017-Feb-18 01:33N 01°18' E 103°41'0 0.0
2017-Feb-18 00:33N 01°18' E 103°41'0 0.0
2017-Feb-17 23:33N 01°18' E 103°41'0 0.0
2017-Feb-17 22:33N 01°18' E 103°41'0 0.0
2017-Feb-17 21:30N 01°18' E 103°41'0 0.0
2017-Feb-17 20:27N 01°18' E 103°41'0 0.0
2017-Feb-17 19:24N 01°18' E 103°41'0 0.0
2017-Feb-17 18:33N 01°18' E 103°41'0 0.0
2017-Feb-17 17:33N 01°18' E 103°41'0 0.0
2017-Feb-17 16:33N 01°18' E 103°41'1 1.1
2017-Feb-17 15:33N 01°17' E 103°42'0 0.0
2017-Feb-17 14:32N 01°17' E 103°42'0 0.0
2017-Feb-17 13:29N 01°17' E 103°42'0 0.0
2017-Feb-17 12:32N 01°17' E 103°42'0 0.0
2017-Feb-17 11:26N 01°17' E 103°42'0 0.0
2017-Feb-17 10:32N 01°17' E 103°42'0 0.0
2017-Feb-17 09:32N 01°17' E 103°42'0 0.0
2017-Feb-17 08:32N 01°17' E 103°42'0 0.0
2017-Feb-17 07:32N 01°17' E 103°42'0 0.0
2017-Feb-17 06:32N 01°17' E 103°42'0 0.0
2017-Feb-17 05:32N 01°17' E 103°42'0 0.0
2017-Feb-17 04:32N 01°17' E 103°42'0 0.0
2017-Feb-17 03:29N 01°17' E 103°42'0 0.0
2017-Feb-17 02:29N 01°17' E 103°42'0 0.0
2017-Feb-17 01:32N 01°17' E 103°42'0 0.0
2017-Feb-17 00:32N 01°17' E 103°42'0 0.0
2017-Feb-16 23:32N 01°17' E 103°42'0 0.0
2017-Feb-16 22:32N 01°17' E 103°42'0 0.0
2017-Feb-16 21:32N 01°17' E 103°42'0 0.0
2017-Feb-16 20:32N 01°17' E 103°42'0 0.1
2017-Feb-16 19:32N 01°17' E 103°42'0 0.3
2017-Feb-16 18:33N 01°17' E 103°42'4 4.2
2017-Feb-16 17:33N 01°14' E 103°39'0 0.1
2017-Feb-16 16:33N 01°14' E 103°39'0 0.0
2017-Feb-16 15:33N 01°14' E 103°39'0 0.0
2017-Feb-16 14:33N 01°14' E 103°39'0 0.0
2017-Feb-16 13:33N 01°14' E 103°39'0 0.0
2017-Feb-16 12:33N 01°14' E 103°39'0 0.0
2017-Feb-16 11:33N 01°14' E 103°39'0 0.0
2017-Feb-16 10:33N 01°14' E 103°39'0 0.1
2017-Feb-16 09:33N 01°14' E 103°39'5 5.0
2017-Feb-16 08:33N 01°10' E 103°42'10 9.9
2017-Feb-16 07:33N 01°12' E 103°52'1110.6
2017-Feb-16 06:32N 01°16' E 104°02'  

Dump ship's entire track history